createdAt,value
2022-08-11T00:00:26.899Z,74.20
2022-08-11T00:01:44.206Z,74.10
2022-08-11T00:03:00.983Z,74.00
2022-08-11T00:04:27.679Z,74.00
2022-08-11T00:05:50.270Z,74.10
2022-08-11T00:07:00.233Z,74.30
2022-08-11T00:08:11.290Z,74.10
2022-08-11T00:09:39.062Z,74.40
2022-08-11T00:10:43.128Z,74.40
2022-08-11T00:11:58.632Z,74.40
2022-08-11T00:13:25.228Z,74.40
2022-08-11T00:14:37.876Z,74.40
2022-08-11T00:15:56.968Z,74.40
2022-08-11T00:17:10.498Z,74.60
2022-08-11T00:18:20.260Z,74.50
2022-08-11T00:20:11.645Z,74.70
2022-08-11T00:21:04.143Z,74.60
2022-08-11T00:22:27.138Z,74.40
2022-08-11T00:23:58.927Z,74.30
2022-08-11T00:25:10.357Z,74.60
2022-08-11T00:26:33.420Z,74.90
2022-08-11T00:27:53.355Z,74.70
2022-08-11T00:29:08.476Z,74.60
2022-08-11T00:30:27.828Z,74.50
2022-08-11T00:31:42.071Z,74.70
2022-08-11T00:33:01.641Z,74.60
2022-08-11T00:34:22.196Z,74.70
2022-08-11T00:35:57.628Z,74.70
2022-08-11T00:37:10.257Z,74.50
2022-08-11T00:38:34.261Z,74.50
2022-08-11T00:39:50.359Z,74.50
2022-08-11T00:41:26.171Z,74.60
2022-08-11T00:42:59.655Z,74.80
2022-08-11T00:44:33.556Z,74.80
2022-08-11T00:45:47.396Z,74.90
2022-08-11T00:47:10.017Z,74.70
2022-08-11T00:48:34.149Z,74.60
2022-08-11T00:50:05.718Z,74.60
2022-08-11T00:51:28.333Z,74.50
2022-08-11T00:53:38.707Z,74.50
2022-08-11T00:55:34.602Z,74.50
2022-08-11T00:57:36.121Z,74.40
2022-08-11T00:59:45.305Z,74.50
2022-08-11T01:01:26.644Z,74.40
2022-08-11T01:03:26.438Z,74.40
2022-08-11T01:05:45.696Z,74.40
2022-08-11T01:08:00.528Z,74.20
2022-08-11T01:09:35.672Z,74.40
2022-08-11T01:11:12.904Z,74.40
2022-08-11T01:12:54.843Z,74.50
2022-08-11T01:15:02.563Z,74.50
2022-08-11T01:16:50.984Z,75.10
2022-08-11T01:19:16.450Z,75.30
2022-08-11T01:21:09.495Z,75.00
2022-08-11T01:23:34.312Z,74.80
2022-08-11T01:25:57.622Z,74.80
2022-08-11T01:27:58.100Z,74.70
2022-08-11T01:30:02.620Z,75.00
2022-08-11T01:32:34.921Z,75.20
2022-08-11T01:37:10.376Z,75.10
2022-08-11T01:39:03.227Z,75.00
2022-08-11T01:41:10.098Z,75.00
2022-08-11T01:43:49.243Z,75.60
2022-08-11T01:45:37.470Z,75.60
2022-08-11T01:47:00.049Z,75.40
2022-08-11T01:48:29.613Z,75.60
2022-08-11T01:50:08.002Z,76.10
2022-08-11T01:51:45.080Z,76.00
2022-08-11T01:53:19.503Z,76.10
2022-08-11T01:54:55.043Z,76.10
2022-08-11T01:56:43.334Z,75.90
2022-08-11T01:58:43.722Z,75.90
2022-08-11T01:59:55.305Z,75.90
2022-08-11T02:01:44.631Z,75.90
2022-08-11T02:03:19.558Z,76.00
2022-08-11T02:04:57.464Z,75.90
2022-08-11T02:06:48.671Z,76.00
2022-08-11T02:08:18.307Z,76.30
2022-08-11T02:10:15.925Z,76.20
2022-08-11T02:11:41.127Z,76.20
2022-08-11T02:13:19.580Z,76.40
2022-08-11T02:15:04.598Z,76.40
2022-08-11T02:17:01.546Z,76.00
2022-08-11T02:18:51.474Z,75.80
2022-08-11T02:20:45.530Z,75.90
2022-08-11T02:22:38.138Z,75.70
2022-08-11T02:24:09.634Z,75.70
2022-08-11T02:26:02.897Z,75.90
2022-08-11T02:27:27.102Z,75.80
2022-08-11T02:29:32.960Z,75.70
2022-08-11T02:32:15.860Z,76.00
2022-08-11T02:33:33.911Z,76.20
2022-08-11T02:35:13.645Z,76.30
2022-08-11T02:36:51.037Z,76.50
2022-08-11T02:38:34.672Z,76.30
2022-08-11T02:40:27.789Z,76.20
2022-08-11T02:42:35.470Z,76.10
2022-08-11T02:44:16.167Z,76.20
2022-08-11T02:45:57.648Z,76.10
2022-08-11T02:47:38.518Z,76.10
2022-08-11T02:49:35.201Z,76.20
2022-08-11T02:51:03.525Z,76.20
2022-08-11T02:52:21.752Z,76.50
2022-08-11T02:53:56.491Z,76.30
2022-08-11T02:55:56.692Z,76.40
2022-08-11T02:57:44.721Z,76.50
2022-08-11T02:59:57.472Z,76.40
2022-08-11T03:02:05.644Z,76.30
2022-08-11T03:03:27.674Z,76.60
2022-08-11T03:04:58.696Z,76.70
2022-08-11T03:06:36.158Z,76.90
2022-08-11T03:08:56.684Z,77.00
2022-08-11T03:10:14.073Z,77.20
2022-08-11T03:12:11.243Z,77.30
2022-08-11T03:13:47.997Z,77.40
2022-08-11T03:15:38.688Z,77.40
2022-08-11T03:17:31.553Z,77.60
2022-08-11T03:19:01.877Z,77.60
2022-08-11T03:20:50.310Z,77.50
2022-08-11T03:22:35.160Z,77.60
2022-08-11T03:24:19.757Z,77.60
2022-08-11T03:25:56.488Z,77.40
2022-08-11T03:27:40.629Z,77.50
2022-08-11T03:29:25.015Z,77.70
2022-08-11T03:33:15.591Z,78.20
2022-08-11T03:34:44.790Z,78.40
2022-08-11T03:37:01.732Z,78.10
2022-08-11T03:38:20.879Z,78.30
2022-08-11T03:40:01.368Z,78.40
2022-08-11T03:42:03.693Z,78.50
2022-08-11T03:43:36.430Z,78.60
2022-08-11T03:45:41.349Z,78.70
2022-08-11T03:47:37.634Z,78.70
2022-08-11T03:49:48.366Z,78.90
2022-08-11T03:51:27.475Z,78.70
2022-08-11T03:53:35.999Z,78.90
2022-08-11T03:55:25.879Z,79.10
2022-08-11T03:57:53.976Z,78.90
2022-08-11T04:00:08.610Z,78.70
2022-08-11T04:02:18.651Z,78.70
2022-08-11T04:04:34.530Z,78.90
2022-08-11T04:06:44.392Z,79.10
2022-08-11T04:09:08.372Z,79.20
2022-08-11T04:11:02.588Z,79.30
2022-08-11T04:12:37.146Z,79.40
2022-08-11T04:15:03.807Z,79.40
2022-08-11T04:17:02.632Z,79.50
2022-08-11T04:19:43.697Z,79.40
2022-08-11T04:21:59.753Z,79.70
2022-08-11T04:24:36.971Z,79.70
2022-08-11T04:28:52.021Z,79.60
2022-08-11T04:30:27.961Z,79.80
2022-08-11T04:32:02.724Z,79.80
2022-08-11T04:34:02.185Z,79.70
2022-08-11T04:36:20.410Z,79.80
2022-08-11T04:38:25.261Z,79.80
2022-08-11T04:40:42.888Z,79.60
2022-08-11T04:43:15.654Z,79.70
2022-08-11T04:45:21.518Z,79.60
2022-08-11T04:47:13.096Z,79.60
2022-08-11T04:49:33.812Z,79.60
2022-08-11T04:54:06.125Z,79.70
2022-08-11T04:56:14.230Z,79.80
2022-08-11T04:58:06.253Z,79.60
2022-08-11T05:00:34.008Z,79.70
2022-08-11T05:02:25.657Z,79.70
2022-08-11T05:04:58.622Z,79.30
2022-08-11T05:07:08.872Z,78.90
2022-08-11T05:09:17.466Z,78.60
2022-08-11T05:11:02.847Z,78.10
2022-08-11T05:12:39.236Z,77.50
2022-08-11T05:14:10.111Z,77.10
2022-08-11T05:15:49.532Z,76.40
2022-08-11T05:17:18.763Z,76.00
2022-08-11T05:18:59.500Z,75.40
2022-08-11T05:20:47.658Z,74.80
2022-08-11T05:22:21.670Z,74.30
2022-08-11T05:24:17.483Z,73.60
2022-08-11T05:26:44.009Z,73.10
2022-08-11T05:27:56.550Z,72.50
2022-08-11T05:29:43.441Z,71.90
2022-08-11T05:31:19.953Z,71.40
2022-08-11T05:33:02.032Z,70.90
2022-08-11T05:34:41.396Z,70.50
2022-08-11T05:36:15.002Z,70.10
2022-08-11T05:38:06.314Z,69.70
2022-08-11T05:39:45.593Z,69.10
2022-08-11T05:41:30.789Z,68.70
2022-08-11T05:43:00.099Z,68.30
2022-08-11T05:44:30.222Z,67.90
2022-08-11T05:46:09.021Z,67.30
2022-08-11T05:47:42.529Z,66.90
2022-08-11T05:49:21.228Z,66.40
2022-08-11T05:50:52.276Z,65.90
2022-08-11T05:52:19.192Z,65.40
2022-08-11T05:54:27.964Z,64.90
2022-08-11T05:56:06.131Z,64.90
2022-08-11T05:57:48.961Z,64.60
2022-08-11T05:58:57.324Z,64.00
2022-08-11T06:00:24.608Z,63.50
2022-08-11T06:01:37.334Z,63.10
2022-08-11T06:03:11.013Z,63.10
2022-08-11T06:04:25.430Z,62.70
2022-08-11T06:06:00.765Z,62.30
2022-08-11T06:07:20.211Z,61.70
2022-08-11T06:08:41.253Z,60.90
2022-08-11T06:10:01.947Z,61.00
2022-08-11T06:11:43.847Z,60.80
2022-08-11T06:12:54.263Z,60.30
2022-08-11T06:14:00.599Z,60.00
2022-08-11T06:15:25.514Z,60.20
2022-08-11T06:16:41.977Z,59.90
2022-08-11T06:17:51.753Z,59.50
2022-08-11T06:19:11.412Z,59.50
2022-08-11T06:20:21.878Z,59.40
2022-08-11T06:21:39.306Z,58.90
2022-08-11T06:23:05.992Z,58.70
2022-08-11T06:24:27.307Z,58.10
2022-08-11T06:25:56.473Z,57.80
2022-08-11T06:27:25.186Z,57.30
2022-08-11T06:28:40.971Z,57.20
2022-08-11T06:30:15.805Z,57.30
2022-08-11T06:31:29.825Z,57.10
2022-08-11T06:32:48.173Z,56.90
2022-08-11T06:34:07.931Z,56.20
2022-08-11T06:35:40.601Z,56.10
2022-08-11T06:36:58.442Z,55.80
2022-08-11T06:38:32.750Z,55.30
2022-08-11T06:39:50.657Z,54.90
2022-08-11T06:41:23.324Z,54.70
2022-08-11T06:43:14.125Z,54.10
2022-08-11T06:44:41.179Z,53.90
2022-08-11T06:46:26.221Z,54.40
2022-08-11T06:47:48.870Z,54.30
2022-08-11T06:49:27.686Z,54.20
2022-08-11T06:50:56.473Z,54.40
2022-08-11T06:52:35.511Z,53.50
2022-08-11T06:54:04.627Z,53.20
2022-08-11T06:55:55.612Z,53.10
2022-08-11T06:57:29.773Z,52.90
2022-08-11T06:59:00.481Z,53.10
2022-08-11T07:00:29.609Z,53.30
2022-08-11T07:02:06.378Z,52.90
2022-08-11T07:03:30.567Z,53.20
2022-08-11T07:05:03.127Z,53.00
2022-08-11T07:06:25.348Z,52.90
2022-08-11T07:08:59.580Z,52.10
2022-08-11T07:10:56.506Z,52.30
2022-08-11T07:13:04.072Z,51.70
2022-08-11T07:15:00.385Z,51.60
2022-08-11T07:16:27.257Z,50.80
2022-08-11T07:17:49.928Z,50.80
2022-08-11T07:19:30.476Z,51.00
2022-08-11T07:21:02.651Z,50.50
2022-08-11T07:22:39.341Z,50.30
2022-08-11T07:24:07.484Z,50.20
2022-08-11T07:25:44.646Z,50.30
2022-08-11T07:27:29.429Z,49.70
2022-08-11T07:29:07.856Z,49.90
2022-08-11T07:30:54.012Z,49.10
2022-08-11T07:32:15.893Z,48.80
2022-08-11T07:34:08.455Z,48.20
2022-08-11T07:35:35.803Z,47.60
2022-08-11T07:37:12.270Z,47.00
2022-08-11T07:38:47.522Z,46.90
2022-08-11T07:39:57.610Z,46.80
2022-08-11T07:41:30.898Z,46.60
2022-08-11T07:43:03.013Z,46.60
2022-08-11T07:44:29.345Z,46.70
2022-08-11T07:46:08.331Z,46.70
2022-08-11T07:47:52.489Z,46.50
2022-08-11T07:49:26.159Z,46.10
2022-08-11T07:51:05.089Z,45.40
2022-08-11T07:52:40.265Z,45.10
2022-08-11T07:54:07.523Z,44.80
2022-08-11T07:55:49.565Z,44.80
2022-08-11T07:58:13.920Z,43.90
2022-08-11T08:00:03.910Z,43.40
2022-08-11T08:02:07.690Z,43.10
2022-08-11T08:03:54.094Z,43.20
2022-08-11T08:07:23.375Z,42.00
2022-08-11T08:09:01.735Z,41.50
2022-08-11T08:10:32.112Z,42.10
2022-08-11T08:12:06.220Z,41.40
2022-08-11T08:13:40.877Z,40.90
2022-08-11T08:15:16.427Z,41.30
2022-08-11T08:16:59.222Z,41.10
2022-08-11T08:18:29.655Z,40.60
2022-08-11T08:21:14.505Z,40.00
2022-08-11T08:22:48.842Z,40.00
2022-08-11T08:24:06.132Z,39.10
2022-08-11T08:25:40.042Z,39.10
2022-08-11T08:27:03.360Z,38.20
2022-08-11T08:28:46.813Z,38.10
2022-08-11T08:30:55.115Z,37.10
2022-08-11T08:32:19.498Z,37.10
2022-08-11T08:33:40.616Z,37.20
2022-08-11T08:35:11.748Z,37.30
2022-08-11T08:36:39.295Z,36.90
2022-08-11T08:38:11.554Z,36.90
2022-08-11T08:39:35.898Z,37.10
2022-08-11T08:41:08.727Z,36.80
2022-08-11T08:42:52.592Z,36.30
2022-08-11T08:44:40.504Z,36.20
2022-08-11T08:46:00.662Z,36.20
2022-08-11T08:49:10.493Z,35.40
2022-08-11T08:50:47.222Z,35.50
2022-08-11T08:52:23.657Z,35.60
2022-08-11T08:54:07.056Z,34.70
2022-08-11T08:55:33.090Z,35.90
2022-08-11T08:57:29.073Z,34.70
2022-08-11T08:58:41.097Z,34.30
2022-08-11T09:00:30.366Z,34.70
2022-08-11T09:02:07.271Z,34.70
2022-08-11T09:04:05.151Z,34.60
2022-08-11T09:05:25.974Z,34.60
2022-08-11T09:06:52.325Z,34.30
2022-08-11T09:08:14.958Z,34.20
2022-08-11T09:09:26.521Z,34.00
2022-08-11T09:10:42.112Z,33.40
2022-08-11T09:12:10.067Z,33.80
2022-08-11T09:13:37.709Z,34.20
2022-08-11T09:15:03.337Z,33.70
2022-08-11T09:16:20.943Z,34.20
2022-08-11T09:17:40.890Z,33.30
2022-08-11T09:19:00.799Z,33.60
2022-08-11T09:20:37.758Z,33.10
2022-08-11T09:22:25.332Z,33.40
2022-08-11T09:24:06.621Z,33.90
2022-08-11T09:25:57.752Z,33.90
2022-08-11T09:27:19.213Z,33.00
2022-08-11T09:28:51.648Z,33.60
2022-08-11T09:30:26.567Z,33.20
2022-08-11T09:32:03.546Z,32.90
2022-08-11T09:33:23.980Z,32.80
2022-08-11T09:34:36.831Z,32.20
2022-08-11T09:36:26.838Z,32.40
2022-08-11T09:38:08.068Z,32.30
2022-08-11T09:39:41.233Z,32.60
2022-08-11T09:41:06.996Z,33.00
2022-08-11T09:42:47.143Z,32.30
2022-08-11T09:44:28.510Z,32.30
2022-08-11T09:45:53.700Z,31.70
2022-08-11T09:47:51.366Z,31.80
2022-08-11T09:50:01.045Z,32.00
2022-08-11T09:51:29.991Z,31.70
2022-08-11T09:53:16.913Z,31.20
2022-08-11T09:54:47.947Z,31.20
2022-08-11T09:56:24.320Z,31.10
2022-08-11T09:58:10.277Z,31.50
2022-08-11T09:59:27.073Z,31.30
2022-08-11T10:01:00.887Z,30.80
2022-08-11T10:05:17.700Z,31.20
2022-08-11T10:06:54.260Z,31.70
2022-08-11T10:08:20.783Z,31.50
2022-08-11T10:10:26.180Z,31.30
2022-08-11T10:11:34.391Z,31.90
2022-08-11T10:14:30.792Z,30.40
2022-08-11T10:15:06.285Z,30.80
2022-08-11T10:16:32.635Z,31.90
2022-08-11T10:18:31.556Z,31.60
2022-08-11T10:20:05.340Z,31.40
2022-08-11T10:21:39.098Z,31.40
2022-08-11T10:23:18.026Z,31.30
2022-08-11T10:25:26.746Z,31.10
2022-08-11T10:27:05.371Z,31.00
2022-08-11T10:28:30.648Z,31.40
2022-08-11T10:30:12.969Z,31.50
2022-08-11T10:31:57.632Z,32.00
2022-08-11T10:33:59.261Z,32.10
2022-08-11T10:35:28.681Z,31.80
2022-08-11T10:36:56.821Z,31.50
2022-08-11T10:38:23.023Z,31.30
2022-08-11T10:39:41.990Z,31.30
2022-08-11T10:41:27.050Z,31.20
2022-08-11T10:43:00.563Z,31.60
2022-08-11T10:44:34.446Z,31.00
2022-08-11T10:46:32.721Z,31.10
2022-08-11T10:48:16.226Z,31.30
2022-08-11T10:49:36.806Z,31.40
2022-08-11T10:51:10.541Z,30.80
2022-08-11T10:52:41.915Z,31.10
2022-08-11T10:54:37.802Z,31.50
2022-08-11T10:56:31.639Z,30.90
2022-08-11T10:58:05.617Z,30.80
2022-08-11T10:59:29.648Z,30.90
2022-08-11T11:01:03.689Z,30.80
2022-08-11T11:02:29.988Z,30.30
2022-08-11T11:03:51.998Z,31.20
2022-08-11T11:05:37.933Z,31.10
2022-08-11T11:07:29.857Z,31.00
2022-08-11T11:09:03.657Z,31.50
2022-08-11T11:10:48.253Z,31.20
2022-08-11T11:12:26.907Z,30.30
2022-08-11T11:14:20.645Z,30.60
2022-08-11T11:16:30.073Z,30.80
2022-08-11T11:18:14.093Z,30.80
2022-08-11T11:19:46.273Z,31.00
2022-08-11T11:21:26.713Z,31.10
2022-08-11T11:22:45.885Z,30.00
2022-08-11T11:24:13.958Z,30.10
2022-08-11T11:26:11.482Z,30.50
2022-08-11T11:27:46.322Z,30.20
2022-08-11T11:29:36.600Z,29.60
2022-08-11T11:31:30.634Z,30.50
2022-08-11T11:33:05.283Z,29.10
2022-08-11T11:35:01.669Z,29.30
2022-08-11T11:36:30.185Z,30.00
2022-08-11T11:37:56.193Z,29.40
2022-08-11T11:39:22.008Z,29.30
2022-08-11T11:41:05.967Z,29.50
2022-08-11T11:42:32.380Z,29.60
2022-08-11T11:43:40.770Z,29.50
2022-08-11T11:44:55.639Z,30.10
2022-08-11T11:46:20.857Z,30.00
2022-08-11T11:47:49.190Z,29.90
2022-08-11T11:49:16.707Z,29.80
2022-08-11T11:51:00.001Z,29.20
2022-08-11T11:52:30.621Z,29.10
2022-08-11T11:53:53.171Z,29.60
2022-08-11T11:55:11.008Z,29.40
2022-08-11T11:56:31.513Z,30.00
2022-08-11T11:58:35.083Z,30.20
2022-08-11T12:00:03.850Z,30.30
2022-08-11T12:01:22.899Z,29.90
2022-08-11T12:02:51.881Z,29.70
2022-08-11T12:04:06.551Z,30.00
2022-08-11T12:05:38.199Z,30.00
2022-08-11T12:07:16.850Z,30.10
2022-08-11T12:08:58.347Z,29.10
2022-08-11T12:10:08.644Z,29.20
2022-08-11T12:11:58.956Z,29.30
2022-08-11T12:13:49.529Z,29.50
2022-08-11T12:16:31.040Z,29.50
2022-08-11T12:19:50.756Z,29.40
2022-08-11T12:21:07.162Z,29.50
2022-08-11T12:22:32.472Z,29.50
2022-08-11T12:24:08.167Z,29.30
2022-08-11T12:25:41.293Z,29.40
2022-08-11T12:27:29.585Z,29.30
2022-08-11T12:28:56.439Z,29.20
2022-08-11T12:30:31.438Z,29.80
2022-08-11T12:32:07.330Z,29.10
2022-08-11T12:33:33.297Z,29.00
2022-08-11T12:36:48.665Z,29.60
2022-08-11T12:38:13.122Z,29.80
2022-08-11T12:40:10.825Z,29.50
2022-08-11T12:41:55.017Z,29.80
2022-08-11T12:43:37.807Z,29.70
2022-08-11T12:47:19.937Z,29.50
2022-08-11T12:49:28.731Z,28.90
2022-08-11T12:52:12.552Z,29.40
2022-08-11T12:53:24.901Z,28.90
2022-08-11T12:56:03.618Z,29.40
2022-08-11T12:57:54.548Z,29.80
2022-08-11T12:59:35.463Z,29.20
2022-08-11T13:01:28.871Z,29.20
2022-08-11T13:03:07.161Z,29.10
2022-08-11T13:04:50.368Z,29.00
2022-08-11T13:06:15.278Z,28.70
2022-08-11T13:07:51.443Z,29.10
2022-08-11T13:09:10.647Z,28.50
2022-08-11T13:10:45.094Z,28.80
2022-08-11T13:12:32.722Z,28.60
2022-08-11T13:13:57.545Z,28.90
2022-08-11T13:15:18.663Z,28.90
2022-08-11T13:17:01.832Z,29.00
2022-08-11T13:18:34.902Z,29.50
2022-08-11T13:19:57.530Z,29.80
2022-08-11T13:21:27.564Z,29.90
2022-08-11T13:22:57.374Z,29.30
2022-08-11T13:24:16.804Z,29.40
2022-08-11T13:25:33.922Z,29.60
2022-08-11T13:26:51.967Z,29.60
2022-08-11T13:28:11.418Z,29.70
2022-08-11T13:29:45.488Z,29.70
2022-08-11T13:31:21.998Z,29.90
2022-08-11T13:34:23.173Z,29.20
2022-08-11T13:35:55.889Z,28.80
2022-08-11T13:37:21.208Z,29.30
2022-08-11T13:38:55.419Z,29.40
2022-08-11T13:40:20.360Z,29.40
2022-08-11T13:41:44.283Z,29.70
2022-08-11T13:44:47.342Z,28.80
2022-08-11T13:46:19.128Z,29.20
2022-08-11T13:47:39.596Z,30.00
2022-08-11T13:49:18.653Z,30.50
2022-08-11T13:50:57.757Z,30.70
2022-08-11T13:52:21.114Z,31.00
2022-08-11T13:53:45.483Z,31.20
2022-08-11T13:55:01.867Z,31.40
2022-08-11T13:56:19.602Z,31.50
2022-08-11T13:58:19.005Z,31.70
2022-08-11T13:59:11.126Z,31.50
2022-08-11T14:00:59.874Z,32.00
2022-08-11T14:02:29.428Z,32.20
2022-08-11T14:04:29.759Z,32.00
2022-08-11T14:06:03.484Z,31.90
2022-08-11T14:07:43.223Z,32.10
2022-08-11T14:09:22.969Z,32.00
2022-08-11T14:11:19.947Z,32.20
2022-08-11T14:14:18.491Z,32.70
2022-08-11T14:15:55.467Z,32.60
2022-08-11T14:17:36.035Z,32.70
2022-08-11T14:19:17.512Z,33.20
2022-08-11T14:20:53.677Z,33.50
2022-08-11T14:22:23.986Z,33.90
2022-08-11T14:23:53.683Z,33.80
2022-08-11T14:26:00.474Z,34.10
2022-08-11T14:27:39.138Z,33.60
2022-08-11T14:29:48.818Z,34.20
2022-08-11T14:31:34.085Z,34.30
2022-08-11T14:33:17.068Z,34.10
2022-08-11T14:34:52.343Z,34.70
2022-08-11T14:36:16.798Z,34.70
2022-08-11T14:39:33.204Z,35.00
2022-08-11T14:41:07.636Z,35.40
2022-08-11T14:42:42.555Z,35.80
2022-08-11T14:44:37.947Z,35.90
2022-08-11T14:46:28.568Z,36.30
2022-08-11T14:48:12.521Z,36.40
2022-08-11T14:49:57.965Z,36.50
2022-08-11T14:51:32.576Z,36.80
2022-08-11T14:53:38.007Z,37.00
2022-08-11T14:55:16.523Z,37.00
2022-08-11T14:56:46.435Z,37.30
2022-08-11T14:58:37.317Z,37.60
2022-08-11T15:00:08.173Z,38.00
2022-08-11T15:01:50.125Z,38.30
2022-08-11T15:03:28.050Z,38.10
2022-08-11T15:04:48.756Z,38.40
2022-08-11T15:06:20.553Z,38.40
2022-08-11T15:07:54.976Z,38.40
2022-08-11T15:09:23.876Z,38.70
2022-08-11T15:10:42.110Z,38.90
2022-08-11T15:12:32.386Z,39.20
2022-08-11T15:13:48.195Z,39.20
2022-08-11T15:15:19.537Z,39.10
2022-08-11T15:17:14.703Z,39.30
2022-08-11T15:19:01.652Z,39.60
2022-08-11T15:20:42.589Z,39.90
2022-08-11T15:22:09.614Z,40.00
2022-08-11T15:24:00.953Z,40.30
2022-08-11T15:25:21.030Z,40.40
2022-08-11T15:28:01.922Z,40.40
2022-08-11T15:29:45.948Z,40.30
2022-08-11T15:31:54.874Z,40.30
2022-08-11T15:33:47.773Z,40.50
2022-08-11T15:35:53.846Z,40.70
2022-08-11T15:37:43.443Z,40.60
2022-08-11T15:39:18.322Z,40.70
2022-08-11T15:41:07.726Z,40.90
2022-08-11T15:43:12.793Z,41.00
2022-08-11T15:46:34.063Z,41.30
2022-08-11T15:48:05.680Z,41.30
2022-08-11T15:50:10.430Z,41.50
2022-08-11T15:51:38.719Z,41.50
2022-08-11T15:53:33.794Z,41.80
2022-08-11T15:55:02.713Z,41.80
2022-08-11T15:56:56.797Z,42.00
2022-08-11T15:58:31.106Z,42.00
2022-08-11T16:00:06.104Z,42.10
2022-08-11T16:02:05.578Z,42.40
2022-08-11T16:04:06.844Z,42.40
2022-08-11T16:05:45.896Z,42.60
2022-08-11T16:09:01.133Z,42.90
2022-08-11T16:10:29.749Z,42.90
2022-08-11T16:11:53.195Z,42.90
2022-08-11T16:13:49.538Z,43.10
2022-08-11T16:15:31.023Z,43.10
2022-08-11T16:16:56.200Z,43.10
2022-08-11T16:18:45.475Z,43.20
2022-08-11T16:20:13.092Z,43.20
2022-08-11T16:21:48.640Z,43.10
2022-08-11T16:23:33.716Z,43.20
2022-08-11T16:27:01.996Z,43.20
2022-08-11T16:27:10.383Z,43.50
2022-08-11T16:28:36.217Z,43.80
2022-08-11T16:30:31.510Z,43.50
2022-08-11T16:32:11.677Z,43.80
2022-08-11T16:33:50.082Z,43.80
2022-08-11T16:35:31.533Z,43.80
2022-08-11T16:37:11.805Z,43.80
2022-08-11T16:38:41.571Z,43.90
2022-08-11T16:40:19.237Z,44.20
2022-08-11T16:41:52.391Z,44.10
2022-08-11T16:43:25.206Z,44.20
2022-08-11T16:44:51.675Z,44.30
2022-08-11T16:46:23.480Z,44.40
2022-08-11T16:48:02.143Z,44.50
2022-08-11T16:49:04.936Z,44.70
2022-08-11T16:50:30.268Z,44.60
2022-08-11T16:51:41.395Z,44.80
2022-08-11T16:53:01.769Z,45.00
2022-08-11T16:54:12.808Z,45.00
2022-08-11T16:55:51.741Z,45.10
2022-08-11T16:57:21.289Z,45.30
2022-08-11T16:59:04.464Z,45.50
2022-08-11T17:00:21.205Z,45.70
2022-08-11T17:01:35.320Z,45.90
2022-08-11T17:03:09.473Z,46.00
2022-08-11T17:04:43.267Z,46.10
2022-08-11T17:06:17.231Z,46.20
2022-08-11T17:08:02.151Z,46.40
2022-08-11T17:09:43.728Z,46.60
2022-08-11T17:11:14.216Z,46.50
2022-08-11T17:12:50.401Z,46.90
2022-08-11T17:14:04.669Z,47.10
2022-08-11T17:15:35.516Z,47.20
2022-08-11T17:16:53.656Z,47.40
2022-08-11T17:18:03.840Z,47.60
2022-08-11T17:20:42.069Z,47.60
2022-08-11T17:21:08.682Z,47.70
2022-08-11T17:22:37.673Z,47.70
2022-08-11T17:23:50.491Z,47.90
2022-08-11T17:25:03.751Z,48.10
2022-08-11T17:26:17.131Z,48.10
2022-08-11T17:27:28.697Z,48.10
2022-08-11T17:28:42.614Z,48.40
2022-08-11T17:29:56.656Z,48.30
2022-08-11T17:31:28.831Z,48.20
2022-08-11T17:33:23.641Z,48.50
2022-08-11T17:34:49.630Z,48.50
2022-08-11T17:35:59.371Z,48.80
2022-08-11T17:37:10.702Z,48.90
2022-08-11T17:38:22.427Z,49.00
2022-08-11T17:39:30.696Z,48.70
2022-08-11T17:41:04.070Z,48.70
2022-08-11T17:42:37.646Z,48.80
2022-08-11T17:44:07.064Z,48.80
2022-08-11T17:45:35.654Z,48.90
2022-08-11T17:47:06.374Z,49.00
2022-08-11T17:48:30.680Z,49.40
2022-08-11T17:49:46.978Z,49.50
2022-08-11T17:50:53.729Z,49.40
2022-08-11T17:52:20.270Z,49.40
2022-08-11T17:54:24.672Z,49.50
2022-08-11T17:55:58.445Z,49.80
2022-08-11T17:57:44.361Z,49.80
2022-08-11T17:59:17.852Z,50.00
2022-08-11T18:00:33.634Z,50.20
2022-08-11T18:01:46.977Z,50.20
2022-08-11T18:03:21.485Z,50.20
2022-08-11T18:04:30.583Z,50.30
2022-08-11T18:05:58.054Z,50.60
2022-08-11T18:07:35.407Z,50.50
2022-08-11T18:09:17.233Z,50.60
2022-08-11T18:10:47.243Z,50.70
2022-08-11T18:12:15.256Z,51.40
2022-08-11T18:14:05.133Z,51.00
2022-08-11T18:17:28.119Z,51.20
2022-08-11T18:19:10.329Z,51.60
2022-08-11T18:20:48.849Z,51.90
2022-08-11T18:22:33.900Z,52.00
2022-08-11T18:24:26.778Z,51.60
2022-08-11T18:28:06.552Z,52.50
2022-08-11T18:31:23.831Z,52.80
2022-08-11T18:32:53.712Z,53.10
2022-08-11T18:34:38.819Z,53.10
2022-08-11T18:36:27.980Z,53.00
2022-08-11T18:38:03.986Z,53.00
2022-08-11T18:39:41.617Z,53.70
2022-08-11T18:41:16.261Z,53.80
2022-08-11T18:42:44.559Z,53.90
2022-08-11T18:44:13.879Z,54.10
2022-08-11T18:45:45.294Z,54.30
2022-08-11T18:47:18.549Z,54.40
2022-08-11T18:48:48.221Z,54.40
2022-08-11T18:50:21.080Z,54.70
2022-08-11T18:52:12.904Z,55.20
2022-08-11T18:53:38.469Z,55.00
2022-08-11T18:55:20.521Z,55.00
2022-08-11T18:56:57.855Z,54.90
2022-08-11T18:58:32.997Z,55.50
2022-08-11T19:00:02.815Z,55.80
2022-08-11T19:01:44.220Z,56.30
2022-08-11T19:03:17.447Z,56.00
2022-08-11T19:04:44.460Z,56.10
2022-08-11T19:06:37.693Z,56.20
2022-08-11T19:08:06.347Z,56.20
2022-08-11T19:09:38.872Z,56.70
2022-08-11T19:11:31.825Z,56.70
2022-08-11T19:13:02.333Z,57.40
2022-08-11T19:14:27.557Z,57.30
2022-08-11T19:16:06.602Z,57.40
2022-08-11T19:17:45.191Z,57.70
2022-08-11T19:19:11.536Z,57.90
2022-08-11T19:20:43.548Z,57.90
2022-08-11T19:22:17.863Z,58.40
2022-08-11T19:23:57.953Z,58.20
2022-08-11T19:25:30.464Z,58.30
2022-08-11T19:26:57.656Z,58.30
2022-08-11T19:28:32.326Z,58.50
2022-08-11T19:30:13.824Z,58.60
2022-08-11T19:31:45.316Z,58.60
2022-08-11T19:33:22.823Z,58.70
2022-08-11T19:35:08.007Z,59.10
2022-08-11T19:36:40.296Z,59.70
2022-08-11T19:38:25.764Z,59.60
2022-08-11T19:40:08.653Z,60.00
2022-08-11T19:41:56.182Z,60.20
2022-08-11T19:43:29.474Z,60.30
2022-08-11T19:44:54.057Z,60.00
2022-08-11T19:46:25.938Z,60.70
2022-08-11T19:48:08.033Z,61.50
2022-08-11T19:49:38.316Z,60.90
2022-08-11T19:51:05.162Z,61.20
2022-08-11T19:52:27.829Z,61.00
2022-08-11T19:53:56.895Z,61.30
2022-08-11T19:57:01.006Z,61.50
2022-08-11T19:58:25.583Z,61.90
2022-08-11T19:59:50.786Z,61.70
2022-08-11T20:01:14.497Z,62.10
2022-08-11T20:02:46.848Z,62.00
2022-08-11T20:04:24.838Z,62.10
2022-08-11T20:05:59.530Z,62.00
2022-08-11T20:07:30.748Z,62.60
2022-08-11T20:08:58.751Z,62.40
2022-08-11T20:10:33.668Z,62.40
2022-08-11T20:12:18.458Z,62.90
2022-08-11T20:14:05.662Z,63.50
2022-08-11T20:15:39.641Z,63.20
2022-08-11T20:17:07.051Z,63.00
2022-08-11T20:18:40.549Z,63.00
2022-08-11T20:20:07.431Z,63.00
2022-08-11T20:21:41.420Z,63.00
2022-08-11T20:23:08.679Z,63.20
2022-08-11T20:24:34.275Z,63.20
2022-08-11T20:26:14.134Z,63.30
2022-08-11T20:27:42.706Z,63.50
2022-08-11T20:29:31.830Z,63.70
2022-08-11T20:31:02.053Z,64.50
2022-08-11T20:32:30.838Z,64.40
2022-08-11T20:34:03.738Z,64.40
2022-08-11T20:35:41.914Z,64.40
2022-08-11T20:37:12.971Z,64.60
2022-08-11T20:38:46.036Z,64.30
2022-08-11T20:40:31.228Z,64.30
2022-08-11T20:42:20.485Z,64.50
2022-08-11T20:44:11.743Z,64.20
2022-08-11T20:45:55.341Z,63.90
2022-08-11T20:47:59.077Z,63.90
2022-08-11T20:49:53.636Z,63.90
2022-08-11T20:51:27.528Z,63.20
2022-08-11T20:53:04.590Z,63.00
2022-08-11T20:54:43.694Z,63.00
2022-08-11T20:56:10.609Z,62.60
2022-08-11T20:58:00.140Z,62.50
2022-08-11T20:59:50.661Z,62.50
2022-08-11T21:01:38.422Z,62.00
2022-08-11T21:03:14.467Z,61.80
2022-08-11T21:05:06.771Z,61.60
2022-08-11T21:06:44.574Z,61.50
2022-08-11T21:08:19.935Z,61.30
2022-08-11T21:10:11.363Z,61.10
2022-08-11T21:11:40.084Z,61.10
2022-08-11T21:13:27.102Z,61.00
2022-08-11T21:15:04.650Z,61.00
2022-08-11T21:16:38.744Z,60.80
2022-08-11T21:18:06.809Z,60.70
2022-08-11T21:20:01.511Z,60.40
2022-08-11T21:21:21.675Z,60.40
2022-08-11T21:22:59.455Z,60.40
2022-08-11T21:24:42.904Z,60.20
2022-08-11T21:26:23.188Z,60.30
2022-08-11T21:27:51.383Z,60.60
2022-08-11T21:29:26.233Z,60.60
2022-08-11T21:30:59.676Z,60.40
2022-08-11T21:32:34.617Z,60.60
2022-08-11T21:34:06.101Z,60.50
2022-08-11T21:35:36.315Z,60.60
2022-08-11T21:37:13.497Z,60.50
2022-08-11T21:38:38.391Z,60.50